sensor_id;sensor_type;location;lat;lon;timestamp;P1;durP1;ratioP1;P2;durP2;ratioP2
37237;SDS011;23129;49.662;8.448;2023-04-24T00:01:10;4.95;;;1.45;;
37237;SDS011;23129;49.662;8.448;2023-04-24T00:03:39;2.42;;;1.25;;
37237;SDS011;23129;49.662;8.448;2023-04-24T00:06:08;1.70;;;1.15;;
37237;SDS011;23129;49.662;8.448;2023-04-24T00:08:37;2.08;;;1.27;;
37237;SDS011;23129;49.662;8.448;2023-04-24T00:11:06;2.88;;;1.05;;
37237;SDS011;23129;49.662;8.448;2023-04-24T00:13:35;3.13;;;1.27;;
37237;SDS011;23129;49.662;8.448;2023-04-24T00:16:04;2.08;;;1.00;;
37237;SDS011;23129;49.662;8.448;2023-04-24T00:18:34;0.80;;;0.80;;
37237;SDS011;23129;49.662;8.448;2023-04-24T00:21:03;1.88;;;1.00;;
37237;SDS011;23129;49.662;8.448;2023-04-24T00:23:32;4.85;;;1.38;;
37237;SDS011;23129;49.662;8.448;2023-04-24T00:26:00;1.42;;;0.90;;
37237;SDS011;23129;49.662;8.448;2023-04-24T00:28:29;0.88;;;0.88;;
37237;SDS011;23129;49.662;8.448;2023-04-24T00:30:58;4.45;;;1.42;;
37237;SDS011;23129;49.662;8.448;2023-04-24T00:33:26;4.07;;;0.77;;
37237;SDS011;23129;49.662;8.448;2023-04-24T00:35:57;4.63;;;1.55;;
37237;SDS011;23129;49.662;8.448;2023-04-24T00:38:25;1.42;;;0.93;;
37237;SDS011;23129;49.662;8.448;2023-04-24T00:40:54;6.47;;;0.90;;
37237;SDS011;23129;49.662;8.448;2023-04-24T00:43:23;1.90;;;1.00;;
37237;SDS011;23129;49.662;8.448;2023-04-24T00:45:52;1.17;;;0.90;;
37237;SDS011;23129;49.662;8.448;2023-04-24T00:48:21;1.58;;;0.88;;
37237;SDS011;23129;49.662;8.448;2023-04-24T00:50:52;2.78;;;0.95;;
37237;SDS011;23129;49.662;8.448;2023-04-24T00:53:23;4.05;;;0.75;;
37237;SDS011;23129;49.662;8.448;2023-04-24T00:55:51;1.55;;;0.85;;
37237;SDS011;23129;49.662;8.448;2023-04-24T00:58:20;2.85;;;0.70;;
37237;SDS011;23129;49.662;8.448;2023-04-24T01:00:50;1.50;;;0.90;;
37237;SDS011;23129;49.662;8.448;2023-04-24T01:03:20;1.30;;;0.73;;
37237;SDS011;23129;49.662;8.448;2023-04-24T01:05:52;4.60;;;0.93;;
37237;SDS011;23129;49.662;8.448;2023-04-24T01:08:24;2.50;;;0.95;;
37237;SDS011;23129;49.662;8.448;2023-04-24T01:10:55;3.92;;;0.73;;
37237;SDS011;23129;49.662;8.448;2023-04-24T01:13:25;6.68;;;0.80;;
37237;SDS011;23129;49.662;8.448;2023-04-24T01:15:54;3.30;;;0.77;;
37237;SDS011;23129;49.662;8.448;2023-04-24T01:18:22;0.73;;;0.60;;
37237;SDS011;23129;49.662;8.448;2023-04-24T01:20:52;0.98;;;0.88;;
37237;SDS011;23129;49.662;8.448;2023-04-24T01:23:25;0.90;;;0.57;;
37237;SDS011;23129;49.662;8.448;2023-04-24T01:25:54;2.17;;;1.20;;
37237;SDS011;23129;49.662;8.448;2023-04-24T01:28:24;5.55;;;0.75;;
37237;SDS011;23129;49.662;8.448;2023-04-24T01:30:54;1.33;;;0.60;;
37237;SDS011;23129;49.662;8.448;2023-04-24T01:33:23;0.85;;;0.55;;
37237;SDS011;23129;49.662;8.448;2023-04-24T01:35:52;0.40;;;0.40;;
37237;SDS011;23129;49.662;8.448;2023-04-24T01:38:21;2.60;;;0.80;;
37237;SDS011;23129;49.662;8.448;2023-04-24T01:40:51;2.05;;;0.60;;
37237;SDS011;23129;49.662;8.448;2023-04-24T01:43:20;0.40;;;0.40;;
37237;SDS011;23129;49.662;8.448;2023-04-24T01:45:49;0.60;;;0.60;;
37237;SDS011;23129;49.662;8.448;2023-04-24T01:48:18;14.25;;;0.95;;
37237;SDS011;23129;49.662;8.448;2023-04-24T01:50:46;1.00;;;0.82;;
37237;SDS011;23129;49.662;8.448;2023-04-24T01:53:15;2.58;;;0.80;;
37237;SDS011;23129;49.662;8.448;2023-04-24T01:55:43;1.63;;;0.70;;
37237;SDS011;23129;49.662;8.448;2023-04-24T01:58:14;3.70;;;1.08;;
37237;SDS011;23129;49.662;8.448;2023-04-24T02:00:42;1.52;;;1.00;;
37237;SDS011;23129;49.662;8.448;2023-04-24T02:03:11;1.45;;;0.90;;
37237;SDS011;23129;49.662;8.448;2023-04-24T02:05:39;2.63;;;1.35;;
37237;SDS011;23129;49.662;8.448;2023-04-24T02:08:10;3.50;;;1.45;;
37237;SDS011;23129;49.662;8.448;2023-04-24T02:10:39;5.43;;;1.30;;
37237;SDS011;23129;49.662;8.448;2023-04-24T02:13:08;3.65;;;1.20;;
37237;SDS011;23129;49.662;8.448;2023-04-24T02:15:38;2.58;;;1.00;;
37237;SDS011;23129;49.662;8.448;2023-04-24T02:18:06;3.83;;;0.70;;
37237;SDS011;23129;49.662;8.448;2023-04-24T02:20:35;0.60;;;0.60;;
37237;SDS011;23129;49.662;8.448;2023-04-24T02:23:04;4.55;;;1.10;;
37237;SDS011;23129;49.662;8.448;2023-04-24T02:25:33;3.20;;;1.05;;
37237;SDS011;23129;49.662;8.448;2023-04-24T02:28:01;2.70;;;0.90;;
37237;SDS011;23129;49.662;8.448;2023-04-24T02:30:32;2.08;;;0.88;;
37237;SDS011;23129;49.662;8.448;2023-04-24T02:33:02;4.60;;;1.45;;
37237;SDS011;23129;49.662;8.448;2023-04-24T02:35:30;1.15;;;1.00;;
37237;SDS011;23129;49.662;8.448;2023-04-24T02:37:59;0.63;;;0.63;;
37237;SDS011;23129;49.662;8.448;2023-04-24T02:40:28;5.65;;;1.23;;
37237;SDS011;23129;49.662;8.448;2023-04-24T02:42:56;5.00;;;1.05;;
37237;SDS011;23129;49.662;8.448;2023-04-24T02:45:25;4.85;;;1.48;;
37237;SDS011;23129;49.662;8.448;2023-04-24T02:47:54;1.30;;;1.20;;
37237;SDS011;23129;49.662;8.448;2023-04-24T02:50:24;3.33;;;1.25;;
37237;SDS011;23129;49.662;8.448;2023-04-24T02:52:53;5.10;;;1.10;;
37237;SDS011;23129;49.662;8.448;2023-04-24T02:55:22;4.50;;;1.33;;
37237;SDS011;23129;49.662;8.448;2023-04-24T02:57:51;6.50;;;1.40;;
37237;SDS011;23129;49.662;8.448;2023-04-24T03:00:20;4.53;;;1.50;;
37237;SDS011;23129;49.662;8.448;2023-04-24T03:02:49;3.83;;;1.27;;
37237;SDS011;23129;49.662;8.448;2023-04-24T03:05:17;4.38;;;1.45;;
37237;SDS011;23129;49.662;8.448;2023-04-24T03:07:48;1.98;;;1.33;;
37237;SDS011;23129;49.662;8.448;2023-04-24T03:10:20;4.63;;;1.25;;
37237;SDS011;23129;49.662;8.448;2023-04-24T03:12:49;2.45;;;1.63;;
37237;SDS011;23129;49.662;8.448;2023-04-24T03:15:18;2.17;;;1.38;;
37237;SDS011;23129;49.662;8.448;2023-04-24T03:17:47;1.88;;;1.58;;
37237;SDS011;23129;49.662;8.448;2023-04-24T03:20:16;2.28;;;1.48;;
37237;SDS011;23129;49.662;8.448;2023-04-24T03:22:45;3.08;;;1.10;;
37237;SDS011;23129;49.662;8.448;2023-04-24T03:25:15;9.38;;;1.90;;
37237;SDS011;23129;49.662;8.448;2023-04-24T03:27:44;1.40;;;1.30;;
37237;SDS011;23129;49.662;8.448;2023-04-24T03:30:37;2.05;;;1.77;;
37237;SDS011;23129;49.662;8.448;2023-04-24T03:33:07;2.88;;;1.70;;
37237;SDS011;23129;49.662;8.448;2023-04-24T03:35:42;4.85;;;1.95;;
37237;SDS011;23129;49.662;8.448;2023-04-24T03:38:13;1.85;;;1.75;;
37237;SDS011;23129;49.662;8.448;2023-04-24T03:40:41;4.72;;;2.60;;
37237;SDS011;23129;49.662;8.448;2023-04-24T03:43:23;3.17;;;2.67;;
37237;SDS011;23129;49.662;8.448;2023-04-24T03:45:56;7.22;;;2.40;;
37237;SDS011;23129;49.662;8.448;2023-04-24T03:48:25;5.85;;;2.55;;
37237;SDS011;23129;49.662;8.448;2023-04-24T03:50:54;2.75;;;2.33;;
37237;SDS011;23129;49.662;8.448;2023-04-24T03:53:24;3.45;;;3.15;;
37237;SDS011;23129;49.662;8.448;2023-04-24T03:55:54;4.15;;;2.90;;
37237;SDS011;23129;49.662;8.448;2023-04-24T03:58:23;3.70;;;3.38;;
37237;SDS011;23129;49.662;8.448;2023-04-24T04:00:54;3.50;;;3.08;;
37237;SDS011;23129;49.662;8.448;2023-04-24T04:03:47;4.88;;;3.67;;
37237;SDS011;23129;49.662;8.448;2023-04-24T04:06:20;3.47;;;3.17;;
37237;SDS011;23129;49.662;8.448;2023-04-24T04:08:52;3.50;;;3.20;;
37237;SDS011;23129;49.662;8.448;2023-04-24T04:11:21;3.33;;;2.80;;
37237;SDS011;23129;49.662;8.448;2023-04-24T04:13:49;3.95;;;3.28;;
37237;SDS011;23129;49.662;8.448;2023-04-24T04:16:20;8.82;;;3.35;;
37237;SDS011;23129;49.662;8.448;2023-04-24T04:18:54;4.68;;;2.88;;
37237;SDS011;23129;49.662;8.448;2023-04-24T04:21:22;5.75;;;3.55;;
37237;SDS011;23129;49.662;8.448;2023-04-24T04:24:02;3.05;;;2.83;;
37237;SDS011;23129;49.662;8.448;2023-04-24T04:26:36;3.50;;;3.17;;
37237;SDS011;23129;49.662;8.448;2023-04-24T04:29:07;4.95;;;3.53;;
37237;SDS011;23129;49.662;8.448;2023-04-24T04:31:40;3.85;;;3.10;;
37237;SDS011;23129;49.662;8.448;2023-04-24T04:34:11;4.32;;;2.58;;
37237;SDS011;23129;49.662;8.448;2023-04-24T04:36:41;3.25;;;2.95;;
37237;SDS011;23129;49.662;8.448;2023-04-24T04:42:10;16.83;;;2.70;;
37237;SDS011;23129;49.662;8.448;2023-04-24T04:44:41;3.03;;;2.80;;
37237;SDS011;23129;49.662;8.448;2023-04-24T04:47:17;3.88;;;3.58;;
37237;SDS011;23129;49.662;8.448;2023-04-24T04:49:50;4.03;;;3.13;;
37237;SDS011;23129;49.662;8.448;2023-04-24T04:52:22;4.07;;;3.35;;
37237;SDS011;23129;49.662;8.448;2023-04-24T04:55:14;6.45;;;3.88;;
37237;SDS011;23129;49.662;8.448;2023-04-24T04:58:01;3.70;;;3.28;;
37237;SDS011;23129;49.662;8.448;2023-04-24T05:00:31;5.60;;;4.18;;
37237;SDS011;23129;49.662;8.448;2023-04-24T05:03:06;9.23;;;4.35;;
37237;SDS011;23129;49.662;8.448;2023-04-24T05:05:49;5.75;;;3.80;;
37237;SDS011;23129;49.662;8.448;2023-04-24T05:08:17;4.53;;;4.13;;
37237;SDS011;23129;49.662;8.448;2023-04-24T05:10:54;7.10;;;4.40;;
37237;SDS011;23129;49.662;8.448;2023-04-24T05:13:25;5.93;;;4.70;;
37237;SDS011;23129;49.662;8.448;2023-04-24T05:16:09;7.40;;;4.68;;
37237;SDS011;23129;49.662;8.448;2023-04-24T05:18:38;8.60;;;4.38;;
37237;SDS011;23129;49.662;8.448;2023-04-24T05:21:10;9.88;;;4.22;;
37237;SDS011;23129;49.662;8.448;2023-04-24T05:23:41;11.45;;;4.28;;
37237;SDS011;23129;49.662;8.448;2023-04-24T05:26:19;4.82;;;4.43;;
37237;SDS011;23129;49.662;8.448;2023-04-24T05:28:49;4.13;;;3.45;;
37237;SDS011;23129;49.662;8.448;2023-04-24T05:31:17;7.32;;;3.38;;
37237;SDS011;23129;49.662;8.448;2023-04-24T05:33:46;3.17;;;2.60;;
37237;SDS011;23129;49.662;8.448;2023-04-24T05:36:15;3.35;;;2.95;;
37237;SDS011;23129;49.662;8.448;2023-04-24T05:38:45;5.28;;;3.13;;
37237;SDS011;23129;49.662;8.448;2023-04-24T05:41:13;4.20;;;3.28;;
37237;SDS011;23129;49.662;8.448;2023-04-24T05:43:43;6.75;;;3.47;;
37237;SDS011;23129;49.662;8.448;2023-04-24T05:46:12;3.88;;;2.85;;
37237;SDS011;23129;49.662;8.448;2023-04-24T05:48:41;9.18;;;4.57;;
37237;SDS011;23129;49.662;8.448;2023-04-24T05:51:09;5.18;;;2.67;;
37237;SDS011;23129;49.662;8.448;2023-04-24T05:53:38;3.53;;;3.22;;
37237;SDS011;23129;49.662;8.448;2023-04-24T05:56:07;3.38;;;3.08;;
37237;SDS011;23129;49.662;8.448;2023-04-24T05:58:36;8.15;;;4.20;;
37237;SDS011;23129;49.662;8.448;2023-04-24T06:01:07;4.38;;;3.90;;
37237;SDS011;23129;49.662;8.448;2023-04-24T06:03:37;7.35;;;4.07;;
37237;SDS011;23129;49.662;8.448;2023-04-24T06:06:06;9.98;;;3.40;;
37237;SDS011;23129;49.662;8.448;2023-04-24T06:08:36;3.80;;;3.42;;
37237;SDS011;23129;49.662;8.448;2023-04-24T06:11:04;6.03;;;4.50;;
37237;SDS011;23129;49.662;8.448;2023-04-24T06:13:34;3.67;;;3.38;;
37237;SDS011;23129;49.662;8.448;2023-04-24T06:16:27;7.18;;;3.83;;
37237;SDS011;23129;49.662;8.448;2023-04-24T06:19:01;11.00;;;4.85;;
37237;SDS011;23129;49.662;8.448;2023-04-24T06:21:30;6.00;;;4.53;;
37237;SDS011;23129;49.662;8.448;2023-04-24T06:23:59;5.95;;;4.35;;
37237;SDS011;23129;49.662;8.448;2023-04-24T06:26:28;7.47;;;4.78;;
37237;SDS011;23129;49.662;8.448;2023-04-24T06:28:56;8.45;;;4.20;;
37237;SDS011;23129;49.662;8.448;2023-04-24T06:31:28;9.88;;;4.85;;
37237;SDS011;23129;49.662;8.448;2023-04-24T06:33:56;7.05;;;4.15;;
37237;SDS011;23129;49.662;8.448;2023-04-24T06:36:25;7.72;;;4.20;;
37237;SDS011;23129;49.662;8.448;2023-04-24T06:38:54;6.53;;;4.55;;
37237;SDS011;23129;49.662;8.448;2023-04-24T06:41:23;8.88;;;4.20;;
37237;SDS011;23129;49.662;8.448;2023-04-24T06:43:52;10.20;;;3.92;;
37237;SDS011;23129;49.662;8.448;2023-04-24T06:46:21;5.75;;;3.75;;
37237;SDS011;23129;49.662;8.448;2023-04-24T06:48:54;7.90;;;3.60;;
37237;SDS011;23129;49.662;8.448;2023-04-24T06:51:22;5.03;;;3.40;;
37237;SDS011;23129;49.662;8.448;2023-04-24T06:53:52;5.00;;;3.85;;
37237;SDS011;23129;49.662;8.448;2023-04-24T06:56:22;4.40;;;3.10;;
37237;SDS011;23129;49.662;8.448;2023-04-24T06:58:51;3.40;;;3.10;;
37237;SDS011;23129;49.662;8.448;2023-04-24T07:01:20;3.47;;;2.80;;
37237;SDS011;23129;49.662;8.448;2023-04-24T07:03:49;3.08;;;2.58;;
37237;SDS011;23129;49.662;8.448;2023-04-24T07:06:20;5.78;;;2.92;;
37237;SDS011;23129;49.662;8.448;2023-04-24T07:08:50;2.45;;;2.25;;
37237;SDS011;23129;49.662;8.448;2023-04-24T07:11:19;3.17;;;2.67;;
37237;SDS011;23129;49.662;8.448;2023-04-24T07:13:48;8.07;;;2.22;;
37237;SDS011;23129;49.662;8.448;2023-04-24T07:16:17;2.40;;;2.22;;
37237;SDS011;23129;49.662;8.448;2023-04-24T07:18:46;3.58;;;2.47;;
37237;SDS011;23129;49.662;8.448;2023-04-24T07:21:15;3.03;;;2.05;;
37237;SDS011;23129;49.662;8.448;2023-04-24T07:23:45;2.55;;;2.17;;
37237;SDS011;23129;49.662;8.448;2023-04-24T07:26:13;4.32;;;2.80;;
37237;SDS011;23129;49.662;8.448;2023-04-24T07:28:42;4.10;;;2.50;;
37237;SDS011;23129;49.662;8.448;2023-04-24T07:31:12;2.72;;;2.53;;
37237;SDS011;23129;49.662;8.448;2023-04-24T07:33:41;2.28;;;2.08;;
37237;SDS011;23129;49.662;8.448;2023-04-24T07:36:09;4.05;;;2.25;;
37237;SDS011;23129;49.662;8.448;2023-04-24T07:38:44;1.63;;;1.52;;
37237;SDS011;23129;49.662;8.448;2023-04-24T07:41:13;1.60;;;1.45;;
37237;SDS011;23129;49.662;8.448;2023-04-24T07:43:42;1.35;;;1.10;;
37237;SDS011;23129;49.662;8.448;2023-04-24T07:46:12;4.30;;;1.10;;
37237;SDS011;23129;49.662;8.448;2023-04-24T07:48:40;4.43;;;1.13;;
37237;SDS011;23129;49.662;8.448;2023-04-24T07:51:09;3.13;;;1.02;;
37237;SDS011;23129;49.662;8.448;2023-04-24T07:53:39;2.72;;;1.13;;
37237;SDS011;23129;49.662;8.448;2023-04-24T07:56:09;1.63;;;1.40;;
37237;SDS011;23129;49.662;8.448;2023-04-24T07:58:38;1.55;;;1.25;;
37237;SDS011;23129;49.662;8.448;2023-04-24T08:01:07;2.60;;;1.40;;
37237;SDS011;23129;49.662;8.448;2023-04-24T08:03:36;3.95;;;1.65;;
37237;SDS011;23129;49.662;8.448;2023-04-24T08:06:05;2.10;;;1.35;;
37237;SDS011;23129;49.662;8.448;2023-04-24T08:08:34;1.83;;;1.73;;
37237;SDS011;23129;49.662;8.448;2023-04-24T08:11:02;2.05;;;1.90;;
37237;SDS011;23129;49.662;8.448;2023-04-24T08:13:32;3.72;;;1.73;;
37237;SDS011;23129;49.662;8.448;2023-04-24T08:16:01;6.47;;;2.10;;
37237;SDS011;23129;49.662;8.448;2023-04-24T08:18:29;2.35;;;1.58;;
37237;SDS011;23129;49.662;8.448;2023-04-24T08:20:58;4.50;;;1.40;;
37237;SDS011;23129;49.662;8.448;2023-04-24T08:23:28;2.75;;;1.30;;
37237;SDS011;23129;49.662;8.448;2023-04-24T08:25:56;1.60;;;1.48;;
37237;SDS011;23129;49.662;8.448;2023-04-24T08:28:25;1.75;;;1.50;;
37237;SDS011;23129;49.662;8.448;2023-04-24T08:30:55;1.17;;;1.10;;
37237;SDS011;23129;49.662;8.448;2023-04-24T08:33:23;4.63;;;1.40;;
37237;SDS011;23129;49.662;8.448;2023-04-24T08:35:52;3.58;;;1.92;;
37237;SDS011;23129;49.662;8.448;2023-04-24T08:38:21;1.98;;;1.70;;
37237;SDS011;23129;49.662;8.448;2023-04-24T08:40:50;2.45;;;1.52;;
37237;SDS011;23129;49.662;8.448;2023-04-24T08:43:18;2.35;;;2.05;;
37237;SDS011;23129;49.662;8.448;2023-04-24T08:45:50;2.00;;;1.77;;
37237;SDS011;23129;49.662;8.448;2023-04-24T08:48:23;2.15;;;2.00;;
37237;SDS011;23129;49.662;8.448;2023-04-24T08:50:57;3.42;;;1.77;;
37237;SDS011;23129;49.662;8.448;2023-04-24T08:53:27;4.68;;;1.92;;
37237;SDS011;23129;49.662;8.448;2023-04-24T08:55:57;4.35;;;1.77;;
37237;SDS011;23129;49.662;8.448;2023-04-24T08:58:28;2.75;;;2.05;;
37237;SDS011;23129;49.662;8.448;2023-04-24T09:00:58;2.97;;;1.67;;
37237;SDS011;23129;49.662;8.448;2023-04-24T09:03:28;2.38;;;1.83;;
37237;SDS011;23129;49.662;8.448;2023-04-24T09:05:57;2.75;;;1.92;;
37237;SDS011;23129;49.662;8.448;2023-04-24T09:08:27;2.20;;;2.10;;
37237;SDS011;23129;49.662;8.448;2023-04-24T09:10:57;4.93;;;2.25;;
37237;SDS011;23129;49.662;8.448;2023-04-24T09:13:28;2.45;;;2.25;;
37237;SDS011;23129;49.662;8.448;2023-04-24T09:15:57;4.20;;;2.45;;
37237;SDS011;23129;49.662;8.448;2023-04-24T09:18:27;4.28;;;2.25;;
37237;SDS011;23129;49.662;8.448;2023-04-24T09:20:57;6.65;;;2.38;;
37237;SDS011;23129;49.662;8.448;2023-04-24T09:23:27;2.10;;;2.00;;
37237;SDS011;23129;49.662;8.448;2023-04-24T09:25:57;2.80;;;2.45;;
37237;SDS011;23129;49.662;8.448;2023-04-24T09:28:29;2.90;;;2.60;;
37237;SDS011;23129;49.662;8.448;2023-04-24T09:31:02;2.28;;;2.08;;
37237;SDS011;23129;49.662;8.448;2023-04-24T09:33:34;3.47;;;2.53;;
37237;SDS011;23129;49.662;8.448;2023-04-24T09:36:04;4.53;;;2.47;;
37237;SDS011;23129;49.662;8.448;2023-04-24T09:38:34;1.83;;;1.73;;
37237;SDS011;23129;49.662;8.448;2023-04-24T09:41:04;2.33;;;2.10;;
37237;SDS011;23129;49.662;8.448;2023-04-24T09:43:35;6.47;;;2.25;;
37237;SDS011;23129;49.662;8.448;2023-04-24T09:46:04;4.20;;;1.88;;
37237;SDS011;23129;49.662;8.448;2023-04-24T09:48:38;1.50;;;1.40;;
37237;SDS011;23129;49.662;8.448;2023-04-24T09:51:06;2.75;;;1.70;;
37237;SDS011;23129;49.662;8.448;2023-04-24T09:53:37;2.90;;;1.45;;
37237;SDS011;23129;49.662;8.448;2023-04-24T09:56:10;2.33;;;1.90;;
37237;SDS011;23129;49.662;8.448;2023-04-24T09:58:39;1.52;;;1.42;;
37237;SDS011;23129;49.662;8.448;2023-04-24T10:01:08;3.47;;;1.85;;
37237;SDS011;23129;49.662;8.448;2023-04-24T10:03:38;3.30;;;1.55;;
37237;SDS011;23129;49.662;8.448;2023-04-24T10:06:11;1.63;;;1.52;;
37237;SDS011;23129;49.662;8.448;2023-04-24T10:08:40;1.65;;;1.13;;
37237;SDS011;23129;49.662;8.448;2023-04-24T10:11:09;2.80;;;1.40;;
37237;SDS011;23129;49.662;8.448;2023-04-24T10:13:37;6.25;;;1.40;;
37237;SDS011;23129;49.662;8.448;2023-04-24T10:16:07;4.78;;;2.38;;
37237;SDS011;23129;49.662;8.448;2023-04-24T10:18:38;2.72;;;1.70;;
37237;SDS011;23129;49.662;8.448;2023-04-24T10:21:07;2.15;;;1.13;;
37237;SDS011;23129;49.662;8.448;2023-04-24T10:23:36;2.60;;;1.23;;
37237;SDS011;23129;49.662;8.448;2023-04-24T10:26:06;2.88;;;1.80;;
37237;SDS011;23129;49.662;8.448;2023-04-24T10:28:36;1.33;;;1.20;;
37237;SDS011;23129;49.662;8.448;2023-04-24T10:31:06;1.75;;;1.55;;
37237;SDS011;23129;49.662;8.448;2023-04-24T10:33:37;3.42;;;1.60;;
37237;SDS011;23129;49.662;8.448;2023-04-24T10:36:09;7.22;;;1.70;;
37237;SDS011;23129;49.662;8.448;2023-04-24T10:38:39;1.60;;;1.50;;
37237;SDS011;23129;49.662;8.448;2023-04-24T10:41:11;3.08;;;1.30;;
37237;SDS011;23129;49.662;8.448;2023-04-24T10:43:42;2.90;;;1.60;;
37237;SDS011;23129;49.662;8.448;2023-04-24T10:46:16;1.75;;;1.25;;
37237;SDS011;23129;49.662;8.448;2023-04-24T10:48:53;2.08;;;1.48;;
37237;SDS011;23129;49.662;8.448;2023-04-24T10:51:22;2.85;;;1.60;;
37237;SDS011;23129;49.662;8.448;2023-04-24T10:53:52;5.63;;;2.00;;
37237;SDS011;23129;49.662;8.448;2023-04-24T10:56:21;2.00;;;1.70;;
37237;SDS011;23129;49.662;8.448;2023-04-24T10:58:49;1.83;;;1.65;;
37237;SDS011;23129;49.662;8.448;2023-04-24T11:01:24;3.58;;;1.83;;
37237;SDS011;23129;49.662;8.448;2023-04-24T11:03:55;1.67;;;1.58;;
37237;SDS011;23129;49.662;8.448;2023-04-24T11:06:29;2.72;;;1.65;;
37237;SDS011;23129;49.662;8.448;2023-04-24T11:09:01;2.03;;;1.73;;
37237;SDS011;23129;49.662;8.448;2023-04-24T11:11:32;4.57;;;1.50;;
37237;SDS011;23129;49.662;8.448;2023-04-24T11:14:08;2.50;;;1.83;;
37237;SDS011;23129;49.662;8.448;2023-04-24T11:16:38;2.30;;;1.80;;
37237;SDS011;23129;49.662;8.448;2023-04-24T11:19:23;2.03;;;1.80;;
37237;SDS011;23129;49.662;8.448;2023-04-24T11:21:57;5.90;;;2.85;;
37237;SDS011;23129;49.662;8.448;2023-04-24T11:24:29;3.20;;;2.03;;
37237;SDS011;23129;49.662;8.448;2023-04-24T11:27:15;2.50;;;2.30;;
37237;SDS011;23129;49.662;8.448;2023-04-24T11:29:46;5.45;;;1.77;;
37237;SDS011;23129;49.662;8.448;2023-04-24T11:32:17;5.78;;;1.90;;
37237;SDS011;23129;49.662;8.448;2023-04-24T11:34:59;6.80;;;2.30;;
37237;SDS011;23129;49.662;8.448;2023-04-24T11:37:29;4.05;;;2.03;;
37237;SDS011;23129;49.662;8.448;2023-04-24T11:40:03;4.22;;;2.35;;
37237;SDS011;23129;49.662;8.448;2023-04-24T11:42:34;3.50;;;2.17;;
37237;SDS011;23129;49.662;8.448;2023-04-24T11:45:07;3.15;;;2.40;;
37237;SDS011;23129;49.662;8.448;2023-04-24T11:47:37;11.27;;;2.70;;
37237;SDS011;23129;49.662;8.448;2023-04-24T11:50:08;3.83;;;2.38;;
37237;SDS011;23129;49.662;8.448;2023-04-24T11:52:40;2.90;;;2.38;;
37237;SDS011;23129;49.662;8.448;2023-04-24T11:55:22;3.78;;;2.78;;
37237;SDS011;23129;49.662;8.448;2023-04-24T11:57:56;4.03;;;2.45;;
37237;SDS011;23129;49.662;8.448;2023-04-24T12:00:26;3.95;;;2.25;;
37237;SDS011;23129;49.662;8.448;2023-04-24T12:03:03;2.97;;;2.20;;
37237;SDS011;23129;49.662;8.448;2023-04-24T12:05:35;6.25;;;2.22;;
37237;SDS011;23129;49.662;8.448;2023-04-24T12:08:05;6.70;;;2.72;;
37237;SDS011;23129;49.662;8.448;2023-04-24T12:10:33;5.57;;;2.38;;
37237;SDS011;23129;49.662;8.448;2023-04-24T12:13:03;5.05;;;2.78;;
37237;SDS011;23129;49.662;8.448;2023-04-24T12:15:32;6.32;;;2.78;;
37237;SDS011;23129;49.662;8.448;2023-04-24T12:18:00;4.55;;;2.45;;
37237;SDS011;23129;49.662;8.448;2023-04-24T12:20:31;5.70;;;2.55;;
37237;SDS011;23129;49.662;8.448;2023-04-24T12:23:01;7.40;;;2.30;;
37237;SDS011;23129;49.662;8.448;2023-04-24T12:25:31;2.90;;;2.08;;
37237;SDS011;23129;49.662;8.448;2023-04-24T12:28:08;6.15;;;2.63;;
37237;SDS011;23129;49.662;8.448;2023-04-24T12:30:39;11.07;;;2.50;;
37237;SDS011;23129;49.662;8.448;2023-04-24T12:33:11;3.65;;;2.35;;
37237;SDS011;23129;49.662;8.448;2023-04-24T12:35:40;3.05;;;2.50;;
37237;SDS011;23129;49.662;8.448;2023-04-24T12:38:10;2.50;;;2.03;;
37237;SDS011;23129;49.662;8.448;2023-04-24T12:40:40;7.25;;;2.88;;
37237;SDS011;23129;49.662;8.448;2023-04-24T12:43:13;6.88;;;2.03;;
37237;SDS011;23129;49.662;8.448;2023-04-24T12:45:42;5.50;;;2.35;;
37237;SDS011;23129;49.662;8.448;2023-04-24T12:48:11;10.05;;;2.67;;
37237;SDS011;23129;49.662;8.448;2023-04-24T12:50:41;3.22;;;2.35;;
37237;SDS011;23129;49.662;8.448;2023-04-24T12:53:13;5.72;;;2.58;;
37237;SDS011;23129;49.662;8.448;2023-04-24T12:55:42;6.15;;;2.55;;
37237;SDS011;23129;49.662;8.448;2023-04-24T12:58:13;10.38;;;2.17;;
37237;SDS011;23129;49.662;8.448;2023-04-24T13:00:42;6.70;;;2.33;;
37237;SDS011;23129;49.662;8.448;2023-04-24T13:03:12;4.28;;;2.80;;
37237;SDS011;23129;49.662;8.448;2023-04-24T13:05:42;2.33;;;2.13;;
37237;SDS011;23129;49.662;8.448;2023-04-24T13:08:10;2.60;;;2.33;;
37237;SDS011;23129;49.662;8.448;2023-04-24T13:10:41;3.97;;;2.50;;
37237;SDS011;23129;49.662;8.448;2023-04-24T13:13:10;3.97;;;2.70;;
37237;SDS011;23129;49.662;8.448;2023-04-24T13:15:39;4.72;;;3.10;;
37237;SDS011;23129;49.662;8.448;2023-04-24T13:18:08;2.60;;;2.40;;
37237;SDS011;23129;49.662;8.448;2023-04-24T13:20:36;7.60;;;2.55;;
37237;SDS011;23129;49.662;8.448;2023-04-24T13:23:07;6.80;;;2.03;;
37237;SDS011;23129;49.662;8.448;2023-04-24T13:25:35;5.07;;;2.30;;
37237;SDS011;23129;49.662;8.448;2023-04-24T13:28:06;5.18;;;1.75;;
37237;SDS011;23129;49.662;8.448;2023-04-24T13:30:35;3.70;;;1.92;;
37237;SDS011;23129;49.662;8.448;2023-04-24T13:33:04;7.18;;;2.30;;
37237;SDS011;23129;49.662;8.448;2023-04-24T13:35:33;2.28;;;2.03;;
37237;SDS011;23129;49.662;8.448;2023-04-24T13:38:02;2.83;;;2.03;;
37237;SDS011;23129;49.662;8.448;2023-04-24T13:40:33;4.55;;;2.53;;
37237;SDS011;23129;49.662;8.448;2023-04-24T13:43:02;3.85;;;2.10;;
37237;SDS011;23129;49.662;8.448;2023-04-24T13:45:32;1.98;;;1.85;;
37237;SDS011;23129;49.662;8.448;2023-04-24T13:48:01;9.60;;;2.58;;
37237;SDS011;23129;49.662;8.448;2023-04-24T13:50:30;4.45;;;2.03;;
37237;SDS011;23129;49.662;8.448;2023-04-24T13:52:58;4.28;;;1.98;;
37237;SDS011;23129;49.662;8.448;2023-04-24T13:55:28;5.38;;;2.58;;
37237;SDS011;23129;49.662;8.448;2023-04-24T13:57:57;2.13;;;1.80;;
37237;SDS011;23129;49.662;8.448;2023-04-24T14:00:27;5.05;;;2.53;;
37237;SDS011;23129;49.662;8.448;2023-04-24T14:02:57;4.03;;;1.60;;
37237;SDS011;23129;49.662;8.448;2023-04-24T14:05:27;2.47;;;1.77;;
37237;SDS011;23129;49.662;8.448;2023-04-24T14:07:55;2.53;;;1.67;;
37237;SDS011;23129;49.662;8.448;2023-04-24T14:10:24;4.60;;;1.45;;
37237;SDS011;23129;49.662;8.448;2023-04-24T14:12:53;7.40;;;2.10;;
37237;SDS011;23129;49.662;8.448;2023-04-24T14:15:22;4.30;;;2.10;;
37237;SDS011;23129;49.662;8.448;2023-04-24T14:17:51;5.70;;;2.13;;
37237;SDS011;23129;49.662;8.448;2023-04-24T14:20:21;1.98;;;1.83;;
37237;SDS011;23129;49.662;8.448;2023-04-24T14:22:50;2.55;;;1.85;;
37237;SDS011;23129;49.662;8.448;2023-04-24T14:25:19;5.70;;;1.83;;
37237;SDS011;23129;49.662;8.448;2023-04-24T14:27:49;2.33;;;1.92;;
37237;SDS011;23129;49.662;8.448;2023-04-24T14:30:18;7.88;;;2.17;;
37237;SDS011;23129;49.662;8.448;2023-04-24T14:32:46;3.33;;;2.10;;
37237;SDS011;23129;49.662;8.448;2023-04-24T14:35:16;7.10;;;2.10;;
37237;SDS011;23129;49.662;8.448;2023-04-24T14:37:46;6.93;;;2.70;;
37237;SDS011;23129;49.662;8.448;2023-04-24T14:40:14;5.50;;;2.42;;
37237;SDS011;23129;49.662;8.448;2023-04-24T14:43:03;3.72;;;2.10;;
37237;SDS011;23129;49.662;8.448;2023-04-24T14:45:32;3.42;;;2.20;;
37237;SDS011;23129;49.662;8.448;2023-04-24T14:48:01;4.55;;;2.25;;
37237;SDS011;23129;49.662;8.448;2023-04-24T14:50:30;2.53;;;2.30;;
37237;SDS011;23129;49.662;8.448;2023-04-24T14:53:00;3.00;;;2.17;;
37237;SDS011;23129;49.662;8.448;2023-04-24T14:55:29;4.47;;;1.98;;
37237;SDS011;23129;49.662;8.448;2023-04-24T14:57:58;1.90;;;1.80;;
37237;SDS011;23129;49.662;8.448;2023-04-24T15:00:27;3.17;;;2.20;;
37237;SDS011;23129;49.662;8.448;2023-04-24T15:02:57;3.60;;;1.77;;
37237;SDS011;23129;49.662;8.448;2023-04-24T15:05:28;3.42;;;2.17;;
37237;SDS011;23129;49.662;8.448;2023-04-24T15:07:57;3.92;;;1.95;;
37237;SDS011;23129;49.662;8.448;2023-04-24T15:10:27;3.50;;;2.13;;